Las Vegas, Nevada
Traffic Map
Current Weather Conditions
Las Vegas, Nevada
Clear
Clear
22°
Feels Like: 22°
Wind Chill: 22° Ceiling: Unl
Heat Index: 22° Visibility: 10mi
Dew Point: -1° Wind: 3mph
Humidity: 22% Direction: 200° (SSW)
Pressure: 29.75in Gusts: 0mph
Raw Report DataKLAS 281056Z 20003KT 10SM CLR 22/M01 A2975 RMK AO2 SLP051 T02221006
Traffic Incident Summary
Active as of:
Severity:
Category:
InformationThere was an issue retrieving the traffic information for this location. Please try a different location or try again shortly.
Advertisements
Track Severe Weather on mobile